sensor_id;sensor_type;location;lat;lon;timestamp;P1;durP1;ratioP1;P2;durP2;ratioP2
17614;SDS011;8926;49.720;6.576;2023-07-29T00:01:16;0.50;;;0.50;;
17614;SDS011;8926;49.720;6.576;2023-07-29T00:03:41;0.30;;;0.30;;
17614;SDS011;8926;49.720;6.576;2023-07-29T00:06:06;0.30;;;0.30;;
17614;SDS011;8926;49.720;6.576;2023-07-29T00:08:32;0.30;;;0.30;;
17614;SDS011;8926;49.720;6.576;2023-07-29T00:10:57;0.50;;;0.50;;
17614;SDS011;8926;49.720;6.576;2023-07-29T00:13:22;0.43;;;0.40;;
17614;SDS011;8926;49.720;6.576;2023-07-29T00:15:48;0.40;;;0.40;;
17614;SDS011;8926;49.720;6.576;2023-07-29T00:18:13;0.40;;;0.40;;
17614;SDS011;8926;49.720;6.576;2023-07-29T00:20:38;0.50;;;0.50;;
17614;SDS011;8926;49.720;6.576;2023-07-29T00:23:04;0.30;;;0.30;;
17614;SDS011;8926;49.720;6.576;2023-07-29T00:25:29;0.43;;;0.43;;
17614;SDS011;8926;49.720;6.576;2023-07-29T00:27:55;0.40;;;0.40;;
17614;SDS011;8926;49.720;6.576;2023-07-29T00:30:21;0.20;;;0.20;;
17614;SDS011;8926;49.720;6.576;2023-07-29T00:32:46;0.40;;;0.40;;
17614;SDS011;8926;49.720;6.576;2023-07-29T00:35:11;0.30;;;0.30;;
17614;SDS011;8926;49.720;6.576;2023-07-29T00:37:36;0.30;;;0.30;;
17614;SDS011;8926;49.720;6.576;2023-07-29T00:40:03;0.33;;;0.33;;
17614;SDS011;8926;49.720;6.576;2023-07-29T00:42:33;0.50;;;0.50;;
17614;SDS011;8926;49.720;6.576;2023-07-29T00:44:58;0.57;;;0.57;;
17614;SDS011;8926;49.720;6.576;2023-07-29T00:47:24;0.20;;;0.20;;
17614;SDS011;8926;49.720;6.576;2023-07-29T00:49:50;0.57;;;0.57;;
17614;SDS011;8926;49.720;6.576;2023-07-29T00:52:16;0.40;;;0.40;;
17614;SDS011;8926;49.720;6.576;2023-07-29T00:54:42;0.60;;;0.60;;
17614;SDS011;8926;49.720;6.576;2023-07-29T00:57:08;0.57;;;0.57;;
17614;SDS011;8926;49.720;6.576;2023-07-29T00:59:35;0.57;;;0.57;;
17614;SDS011;8926;49.720;6.576;2023-07-29T01:02:01;0.87;;;0.87;;
17614;SDS011;8926;49.720;6.576;2023-07-29T01:04:27;0.47;;;0.47;;
17614;SDS011;8926;49.720;6.576;2023-07-29T01:07:00;0.60;;;0.60;;
17614;SDS011;8926;49.720;6.576;2023-07-29T01:09:42;0.67;;;0.67;;
17614;SDS011;8926;49.720;6.576;2023-07-29T01:12:20;0.73;;;0.60;;
17614;SDS011;8926;49.720;6.576;2023-07-29T01:15:09;0.80;;;0.70;;
17614;SDS011;8926;49.720;6.576;2023-07-29T01:17:38;0.60;;;0.60;;
17614;SDS011;8926;49.720;6.576;2023-07-29T01:20:08;0.63;;;0.63;;
17614;SDS011;8926;49.720;6.576;2023-07-29T01:22:36;0.53;;;0.53;;
17614;SDS011;8926;49.720;6.576;2023-07-29T01:25:05;0.50;;;0.50;;
17614;SDS011;8926;49.720;6.576;2023-07-29T01:27:31;0.30;;;0.30;;
17614;SDS011;8926;49.720;6.576;2023-07-29T01:29:57;0.50;;;0.50;;
17614;SDS011;8926;49.720;6.576;2023-07-29T01:32:25;0.40;;;0.40;;
17614;SDS011;8926;49.720;6.576;2023-07-29T01:37:53;0.30;;;0.30;;
17614;SDS011;8926;49.720;6.576;2023-07-29T01:40:26;0.43;;;0.43;;
17614;SDS011;8926;49.720;6.576;2023-07-29T01:42:53;0.40;;;0.40;;
17614;SDS011;8926;49.720;6.576;2023-07-29T01:45:18;0.30;;;0.30;;
17614;SDS011;8926;49.720;6.576;2023-07-29T01:47:44;0.50;;;0.50;;
17614;SDS011;8926;49.720;6.576;2023-07-29T01:50:09;0.53;;;0.53;;
17614;SDS011;8926;49.720;6.576;2023-07-29T01:52:35;0.47;;;0.47;;
17614;SDS011;8926;49.720;6.576;2023-07-29T01:55:01;0.30;;;0.30;;
17614;SDS011;8926;49.720;6.576;2023-07-29T01:57:26;0.50;;;0.50;;
17614;SDS011;8926;49.720;6.576;2023-07-29T01:59:52;0.40;;;0.40;;
17614;SDS011;8926;49.720;6.576;2023-07-29T02:02:17;0.40;;;0.40;;
17614;SDS011;8926;49.720;6.576;2023-07-29T02:04:42;0.30;;;0.30;;
17614;SDS011;8926;49.720;6.576;2023-07-29T02:07:08;0.30;;;0.30;;
17614;SDS011;8926;49.720;6.576;2023-07-29T02:09:33;0.40;;;0.40;;
17614;SDS011;8926;49.720;6.576;2023-07-29T02:11:58;0.87;;;0.50;;
17614;SDS011;8926;49.720;6.576;2023-07-29T02:14:24;0.40;;;0.40;;
17614;SDS011;8926;49.720;6.576;2023-07-29T02:16:49;0.40;;;0.40;;
17614;SDS011;8926;49.720;6.576;2023-07-29T02:19:15;0.50;;;0.50;;
17614;SDS011;8926;49.720;6.576;2023-07-29T02:21:40;0.40;;;0.40;;
17614;SDS011;8926;49.720;6.576;2023-07-29T02:24:05;1.23;;;0.50;;
17614;SDS011;8926;49.720;6.576;2023-07-29T02:26:31;0.40;;;0.40;;
17614;SDS011;8926;49.720;6.576;2023-07-29T02:28:56;0.40;;;0.40;;
17614;SDS011;8926;49.720;6.576;2023-07-29T02:31:22;0.60;;;0.60;;
17614;SDS011;8926;49.720;6.576;2023-07-29T02:33:49;0.40;;;0.40;;
17614;SDS011;8926;49.720;6.576;2023-07-29T02:36:14;0.50;;;0.50;;
17614;SDS011;8926;49.720;6.576;2023-07-29T02:38:40;0.53;;;0.53;;
17614;SDS011;8926;49.720;6.576;2023-07-29T02:41:07;0.37;;;0.37;;
17614;SDS011;8926;49.720;6.576;2023-07-29T02:43:34;0.40;;;0.40;;
17614;SDS011;8926;49.720;6.576;2023-07-29T02:46:00;0.43;;;0.43;;
17614;SDS011;8926;49.720;6.576;2023-07-29T02:48:25;0.40;;;0.40;;
17614;SDS011;8926;49.720;6.576;2023-07-29T02:50:50;0.50;;;0.50;;
17614;SDS011;8926;49.720;6.576;2023-07-29T02:53:16;0.43;;;0.43;;
17614;SDS011;8926;49.720;6.576;2023-07-29T02:55:41;0.40;;;0.40;;
17614;SDS011;8926;49.720;6.576;2023-07-29T02:58:07;0.50;;;0.50;;
17614;SDS011;8926;49.720;6.576;2023-07-29T03:00:32;0.60;;;0.50;;
17614;SDS011;8926;49.720;6.576;2023-07-29T03:02:58;0.43;;;0.43;;
17614;SDS011;8926;49.720;6.576;2023-07-29T03:05:24;0.60;;;0.60;;
17614;SDS011;8926;49.720;6.576;2023-07-29T03:07:49;0.40;;;0.40;;
17614;SDS011;8926;49.720;6.576;2023-07-29T03:10:15;0.57;;;0.57;;
17614;SDS011;8926;49.720;6.576;2023-07-29T03:12:40;0.60;;;0.60;;
17614;SDS011;8926;49.720;6.576;2023-07-29T03:15:05;0.57;;;0.57;;
17614;SDS011;8926;49.720;6.576;2023-07-29T03:17:31;0.63;;;0.63;;
17614;SDS011;8926;49.720;6.576;2023-07-29T03:19:57;0.53;;;0.53;;
17614;SDS011;8926;49.720;6.576;2023-07-29T03:22:22;0.50;;;0.50;;
17614;SDS011;8926;49.720;6.576;2023-07-29T03:24:47;0.60;;;0.60;;
17614;SDS011;8926;49.720;6.576;2023-07-29T03:27:12;0.50;;;0.50;;
17614;SDS011;8926;49.720;6.576;2023-07-29T03:29:40;0.50;;;0.50;;
17614;SDS011;8926;49.720;6.576;2023-07-29T03:32:05;0.33;;;0.33;;
17614;SDS011;8926;49.720;6.576;2023-07-29T03:34:31;0.30;;;0.30;;
17614;SDS011;8926;49.720;6.576;2023-07-29T03:36:56;0.50;;;0.50;;
17614;SDS011;8926;49.720;6.576;2023-07-29T03:39:22;0.50;;;0.50;;
17614;SDS011;8926;49.720;6.576;2023-07-29T03:41:48;1.30;;;0.70;;
17614;SDS011;8926;49.720;6.576;2023-07-29T03:44:13;0.80;;;0.80;;
17614;SDS011;8926;49.720;6.576;2023-07-29T03:46:38;0.80;;;0.80;;
17614;SDS011;8926;49.720;6.576;2023-07-29T03:49:04;0.60;;;0.60;;
17614;SDS011;8926;49.720;6.576;2023-07-29T03:51:29;1.10;;;1.00;;
17614;SDS011;8926;49.720;6.576;2023-07-29T03:53:54;0.60;;;0.60;;
17614;SDS011;8926;49.720;6.576;2023-07-29T03:56:19;0.67;;;0.67;;
17614;SDS011;8926;49.720;6.576;2023-07-29T03:58:45;0.50;;;0.50;;
17614;SDS011;8926;49.720;6.576;2023-07-29T04:01:11;0.60;;;0.60;;
17614;SDS011;8926;49.720;6.576;2023-07-29T04:03:37;0.40;;;0.40;;
17614;SDS011;8926;49.720;6.576;2023-07-29T04:06:02;0.63;;;0.63;;
17614;SDS011;8926;49.720;6.576;2023-07-29T04:08:27;1.63;;;1.00;;
17614;SDS011;8926;49.720;6.576;2023-07-29T04:10:53;1.27;;;1.17;;
17614;SDS011;8926;49.720;6.576;2023-07-29T04:13:18;0.73;;;0.73;;
17614;SDS011;8926;49.720;6.576;2023-07-29T04:15:43;1.60;;;1.17;;
17614;SDS011;8926;49.720;6.576;2023-07-29T04:18:09;1.00;;;1.00;;
17614;SDS011;8926;49.720;6.576;2023-07-29T04:20:34;1.17;;;1.07;;
17614;SDS011;8926;49.720;6.576;2023-07-29T04:22:59;1.30;;;1.20;;
17614;SDS011;8926;49.720;6.576;2023-07-29T04:25:25;1.10;;;1.10;;
17614;SDS011;8926;49.720;6.576;2023-07-29T04:27:50;0.97;;;0.80;;
17614;SDS011;8926;49.720;6.576;2023-07-29T04:30:15;1.17;;;0.90;;
17614;SDS011;8926;49.720;6.576;2023-07-29T04:32:41;1.20;;;1.10;;
17614;SDS011;8926;49.720;6.576;2023-07-29T04:35:07;0.80;;;0.80;;
17614;SDS011;8926;49.720;6.576;2023-07-29T04:37:33;0.90;;;0.90;;
17614;SDS011;8926;49.720;6.576;2023-07-29T04:39:58;0.60;;;0.60;;
17614;SDS011;8926;49.720;6.576;2023-07-29T04:42:23;0.70;;;0.70;;
17614;SDS011;8926;49.720;6.576;2023-07-29T04:44:49;1.00;;;0.90;;
17614;SDS011;8926;49.720;6.576;2023-07-29T04:47:14;0.60;;;0.60;;
17614;SDS011;8926;49.720;6.576;2023-07-29T04:49:39;0.50;;;0.50;;
17614;SDS011;8926;49.720;6.576;2023-07-29T04:52:05;0.87;;;0.70;;
17614;SDS011;8926;49.720;6.576;2023-07-29T04:54:30;0.67;;;0.53;;
17614;SDS011;8926;49.720;6.576;2023-07-29T04:56:56;0.50;;;0.50;;
17614;SDS011;8926;49.720;6.576;2023-07-29T04:59:21;0.50;;;0.50;;
17614;SDS011;8926;49.720;6.576;2023-07-29T05:01:46;0.43;;;0.43;;
17614;SDS011;8926;49.720;6.576;2023-07-29T05:04:12;0.50;;;0.50;;
17614;SDS011;8926;49.720;6.576;2023-07-29T05:06:37;0.30;;;0.30;;
17614;SDS011;8926;49.720;6.576;2023-07-29T05:09:15;0.20;;;0.20;;
17614;SDS011;8926;49.720;6.576;2023-07-29T05:11:42;0.67;;;0.40;;
17614;SDS011;8926;49.720;6.576;2023-07-29T05:14:09;0.87;;;0.40;;
17614;SDS011;8926;49.720;6.576;2023-07-29T05:16:34;0.33;;;0.33;;
17614;SDS011;8926;49.720;6.576;2023-07-29T05:19:00;1.33;;;0.60;;
17614;SDS011;8926;49.720;6.576;2023-07-29T05:21:25;0.50;;;0.30;;
17614;SDS011;8926;49.720;6.576;2023-07-29T05:23:50;0.60;;;0.60;;
17614;SDS011;8926;49.720;6.576;2023-07-29T05:26:16;0.60;;;0.60;;
17614;SDS011;8926;49.720;6.576;2023-07-29T05:28:41;0.80;;;0.60;;
17614;SDS011;8926;49.720;6.576;2023-07-29T05:31:06;0.67;;;0.50;;
17614;SDS011;8926;49.720;6.576;2023-07-29T05:33:32;0.60;;;0.50;;
17614;SDS011;8926;49.720;6.576;2023-07-29T05:35:57;0.40;;;0.40;;
17614;SDS011;8926;49.720;6.576;2023-07-29T05:38:23;0.30;;;0.30;;
17614;SDS011;8926;49.720;6.576;2023-07-29T05:40:48;0.27;;;0.27;;
17614;SDS011;8926;49.720;6.576;2023-07-29T05:43:14;0.30;;;0.30;;
17614;SDS011;8926;49.720;6.576;2023-07-29T05:45:39;0.70;;;0.30;;
17614;SDS011;8926;49.720;6.576;2023-07-29T05:48:05;0.40;;;0.40;;
17614;SDS011;8926;49.720;6.576;2023-07-29T05:50:30;0.30;;;0.30;;
17614;SDS011;8926;49.720;6.576;2023-07-29T05:52:56;0.67;;;0.63;;
17614;SDS011;8926;49.720;6.576;2023-07-29T05:55:21;0.30;;;0.30;;
17614;SDS011;8926;49.720;6.576;2023-07-29T05:57:47;0.70;;;0.50;;
17614;SDS011;8926;49.720;6.576;2023-07-29T06:00:12;0.33;;;0.30;;
17614;SDS011;8926;49.720;6.576;2023-07-29T06:02:37;0.47;;;0.40;;
17614;SDS011;8926;49.720;6.576;2023-07-29T06:05:03;0.67;;;0.40;;
17614;SDS011;8926;49.720;6.576;2023-07-29T06:07:29;0.50;;;0.40;;
17614;SDS011;8926;49.720;6.576;2023-07-29T06:09:55;0.33;;;0.33;;
17614;SDS011;8926;49.720;6.576;2023-07-29T06:12:21;0.20;;;0.20;;
17614;SDS011;8926;49.720;6.576;2023-07-29T06:14:46;0.30;;;0.30;;
17614;SDS011;8926;49.720;6.576;2023-07-29T06:17:11;0.33;;;0.33;;
17614;SDS011;8926;49.720;6.576;2023-07-29T06:19:37;0.57;;;0.50;;
17614;SDS011;8926;49.720;6.576;2023-07-29T06:22:03;0.53;;;0.30;;
17614;SDS011;8926;49.720;6.576;2023-07-29T06:24:29;0.30;;;0.30;;
17614;SDS011;8926;49.720;6.576;2023-07-29T06:26:54;0.20;;;0.20;;
17614;SDS011;8926;49.720;6.576;2023-07-29T06:29:20;0.53;;;0.40;;
17614;SDS011;8926;49.720;6.576;2023-07-29T06:31:45;0.60;;;0.50;;
17614;SDS011;8926;49.720;6.576;2023-07-29T06:34:10;0.53;;;0.50;;
17614;SDS011;8926;49.720;6.576;2023-07-29T06:36:35;0.73;;;0.60;;
17614;SDS011;8926;49.720;6.576;2023-07-29T06:39:01;0.53;;;0.40;;
17614;SDS011;8926;49.720;6.576;2023-07-29T06:41:26;0.50;;;0.50;;
17614;SDS011;8926;49.720;6.576;2023-07-29T06:43:51;1.43;;;0.60;;
17614;SDS011;8926;49.720;6.576;2023-07-29T06:46:17;0.40;;;0.40;;
17614;SDS011;8926;49.720;6.576;2023-07-29T06:48:42;0.73;;;0.73;;
17614;SDS011;8926;49.720;6.576;2023-07-29T06:51:07;0.83;;;0.60;;
17614;SDS011;8926;49.720;6.576;2023-07-29T06:53:32;0.50;;;0.50;;
17614;SDS011;8926;49.720;6.576;2023-07-29T06:55:58;0.70;;;0.70;;
17614;SDS011;8926;49.720;6.576;2023-07-29T06:58:23;0.63;;;0.63;;
17614;SDS011;8926;49.720;6.576;2023-07-29T07:00:49;1.33;;;0.60;;
17614;SDS011;8926;49.720;6.576;2023-07-29T07:03:14;1.47;;;1.13;;
17614;SDS011;8926;49.720;6.576;2023-07-29T07:05:39;1.97;;;1.13;;
17614;SDS011;8926;49.720;6.576;2023-07-29T07:08:05;2.60;;;1.20;;
17614;SDS011;8926;49.720;6.576;2023-07-29T07:10:30;1.07;;;1.00;;
17614;SDS011;8926;49.720;6.576;2023-07-29T07:12:55;1.47;;;1.07;;
17614;SDS011;8926;49.720;6.576;2023-07-29T07:15:21;1.17;;;1.00;;
17614;SDS011;8926;49.720;6.576;2023-07-29T07:17:46;0.97;;;0.90;;
17614;SDS011;8926;49.720;6.576;2023-07-29T07:20:11;1.60;;;0.70;;
17614;SDS011;8926;49.720;6.576;2023-07-29T07:22:37;0.60;;;0.60;;
17614;SDS011;8926;49.720;6.576;2023-07-29T07:25:02;0.50;;;0.50;;
17614;SDS011;8926;49.720;6.576;2023-07-29T07:27:28;0.87;;;0.70;;
17614;SDS011;8926;49.720;6.576;2023-07-29T07:29:53;0.77;;;0.77;;
17614;SDS011;8926;49.720;6.576;2023-07-29T07:32:18;0.60;;;0.60;;
17614;SDS011;8926;49.720;6.576;2023-07-29T07:34:44;0.40;;;0.40;;
17614;SDS011;8926;49.720;6.576;2023-07-29T07:37:09;0.60;;;0.40;;
17614;SDS011;8926;49.720;6.576;2023-07-29T07:39:34;0.80;;;0.70;;
17614;SDS011;8926;49.720;6.576;2023-07-29T07:42:00;0.50;;;0.50;;
17614;SDS011;8926;49.720;6.576;2023-07-29T07:44:25;0.40;;;0.37;;
17614;SDS011;8926;49.720;6.576;2023-07-29T07:46:51;0.50;;;0.50;;
17614;SDS011;8926;49.720;6.576;2023-07-29T07:49:17;0.80;;;0.57;;
17614;SDS011;8926;49.720;6.576;2023-07-29T07:51:43;0.47;;;0.47;;
17614;SDS011;8926;49.720;6.576;2023-07-29T07:54:09;1.17;;;1.03;;
17614;SDS011;8926;49.720;6.576;2023-07-29T07:56:34;1.57;;;1.10;;
17614;SDS011;8926;49.720;6.576;2023-07-29T07:58:59;1.43;;;1.30;;
17614;SDS011;8926;49.720;6.576;2023-07-29T08:01:25;0.80;;;0.80;;
17614;SDS011;8926;49.720;6.576;2023-07-29T08:03:50;1.93;;;1.30;;
17614;SDS011;8926;49.720;6.576;2023-07-29T08:06:15;2.93;;;1.83;;
17614;SDS011;8926;49.720;6.576;2023-07-29T08:08:41;1.20;;;1.20;;
17614;SDS011;8926;49.720;6.576;2023-07-29T08:11:06;1.40;;;1.30;;
17614;SDS011;8926;49.720;6.576;2023-07-29T08:13:31;1.73;;;1.50;;
17614;SDS011;8926;49.720;6.576;2023-07-29T08:15:56;2.07;;;1.87;;
17614;SDS011;8926;49.720;6.576;2023-07-29T08:18:22;1.57;;;1.47;;
17614;SDS011;8926;49.720;6.576;2023-07-29T08:23:20;1.80;;;1.70;;
17614;SDS011;8926;49.720;6.576;2023-07-29T08:25:50;1.20;;;1.10;;
17614;SDS011;8926;49.720;6.576;2023-07-29T08:28:17;0.90;;;0.90;;
17614;SDS011;8926;49.720;6.576;2023-07-29T08:30:43;1.30;;;1.20;;
17614;SDS011;8926;49.720;6.576;2023-07-29T08:33:08;1.30;;;1.20;;
17614;SDS011;8926;49.720;6.576;2023-07-29T08:35:33;1.20;;;1.10;;
17614;SDS011;8926;49.720;6.576;2023-07-29T08:37:58;1.20;;;1.20;;
17614;SDS011;8926;49.720;6.576;2023-07-29T08:40:25;0.93;;;0.93;;
17614;SDS011;8926;49.720;6.576;2023-07-29T08:42:54;0.97;;;0.97;;
17614;SDS011;8926;49.720;6.576;2023-07-29T08:45:23;0.80;;;0.80;;
17614;SDS011;8926;49.720;6.576;2023-07-29T08:47:49;1.43;;;1.33;;
17614;SDS011;8926;49.720;6.576;2023-07-29T08:50:19;0.90;;;0.90;;
17614;SDS011;8926;49.720;6.576;2023-07-29T08:52:45;1.17;;;0.90;;
17614;SDS011;8926;49.720;6.576;2023-07-29T08:55:11;0.97;;;0.97;;
17614;SDS011;8926;49.720;6.576;2023-07-29T08:57:37;2.20;;;1.23;;
17614;SDS011;8926;49.720;6.576;2023-07-29T09:00:02;1.53;;;1.20;;
17614;SDS011;8926;49.720;6.576;2023-07-29T09:02:28;1.07;;;0.97;;
17614;SDS011;8926;49.720;6.576;2023-07-29T09:04:54;1.40;;;1.30;;
17614;SDS011;8926;49.720;6.576;2023-07-29T09:07:19;1.70;;;1.10;;
17614;SDS011;8926;49.720;6.576;2023-07-29T09:09:45;1.03;;;1.03;;
17614;SDS011;8926;49.720;6.576;2023-07-29T09:12:11;0.97;;;0.90;;
17614;SDS011;8926;49.720;6.576;2023-07-29T09:14:36;0.70;;;0.70;;
17614;SDS011;8926;49.720;6.576;2023-07-29T09:17:02;0.67;;;0.67;;
17614;SDS011;8926;49.720;6.576;2023-07-29T09:19:27;1.00;;;1.00;;
17614;SDS011;8926;49.720;6.576;2023-07-29T09:21:53;0.90;;;0.90;;
17614;SDS011;8926;49.720;6.576;2023-07-29T09:24:18;0.80;;;0.80;;
17614;SDS011;8926;49.720;6.576;2023-07-29T09:26:51;2.00;;;1.10;;
17614;SDS011;8926;49.720;6.576;2023-07-29T09:29:21;1.00;;;1.00;;
17614;SDS011;8926;49.720;6.576;2023-07-29T09:31:48;1.43;;;1.33;;
17614;SDS011;8926;49.720;6.576;2023-07-29T09:34:14;1.00;;;0.90;;
17614;SDS011;8926;49.720;6.576;2023-07-29T09:36:40;1.40;;;1.30;;
17614;SDS011;8926;49.720;6.576;2023-07-29T09:39:10;1.03;;;1.03;;
17614;SDS011;8926;49.720;6.576;2023-07-29T09:41:37;0.90;;;0.83;;
17614;SDS011;8926;49.720;6.576;2023-07-29T09:44:02;0.80;;;0.80;;
17614;SDS011;8926;49.720;6.576;2023-07-29T09:46:32;0.70;;;0.70;;
17614;SDS011;8926;49.720;6.576;2023-07-29T09:48:59;1.03;;;1.03;;
17614;SDS011;8926;49.720;6.576;2023-07-29T09:51:24;1.43;;;1.13;;
17614;SDS011;8926;49.720;6.576;2023-07-29T09:53:50;0.90;;;0.90;;
17614;SDS011;8926;49.720;6.576;2023-07-29T09:56:17;0.87;;;0.80;;
17614;SDS011;8926;49.720;6.576;2023-07-29T09:58:45;0.57;;;0.57;;
17614;SDS011;8926;49.720;6.576;2023-07-29T10:01:11;0.77;;;0.77;;
17614;SDS011;8926;49.720;6.576;2023-07-29T10:03:37;0.83;;;0.83;;
17614;SDS011;8926;49.720;6.576;2023-07-29T10:06:03;0.80;;;0.80;;
17614;SDS011;8926;49.720;6.576;2023-07-29T10:08:29;1.07;;;1.07;;
17614;SDS011;8926;49.720;6.576;2023-07-29T10:10:57;1.30;;;1.20;;
17614;SDS011;8926;49.720;6.576;2023-07-29T10:13:24;1.10;;;1.00;;
17614;SDS011;8926;49.720;6.576;2023-07-29T10:15:51;1.03;;;1.03;;
17614;SDS011;8926;49.720;6.576;2023-07-29T10:18:18;0.90;;;0.90;;
17614;SDS011;8926;49.720;6.576;2023-07-29T10:20:43;1.10;;;1.10;;
17614;SDS011;8926;49.720;6.576;2023-07-29T10:23:09;1.63;;;1.10;;
17614;SDS011;8926;49.720;6.576;2023-07-29T10:25:39;1.53;;;1.10;;
17614;SDS011;8926;49.720;6.576;2023-07-29T10:28:11;1.00;;;1.00;;
17614;SDS011;8926;49.720;6.576;2023-07-29T10:30:37;1.00;;;1.00;;
17614;SDS011;8926;49.720;6.576;2023-07-29T10:33:04;1.53;;;1.30;;
17614;SDS011;8926;49.720;6.576;2023-07-29T10:35:32;1.10;;;1.10;;
17614;SDS011;8926;49.720;6.576;2023-07-29T10:37:58;1.10;;;1.10;;
17614;SDS011;8926;49.720;6.576;2023-07-29T10:40:25;1.27;;;1.00;;
17614;SDS011;8926;49.720;6.576;2023-07-29T10:45:25;2.70;;;1.20;;
17614;SDS011;8926;49.720;6.576;2023-07-29T10:47:51;1.30;;;1.00;;
17614;SDS011;8926;49.720;6.576;2023-07-29T10:50:17;1.27;;;1.20;;
17614;SDS011;8926;49.720;6.576;2023-07-29T10:52:48;0.93;;;0.93;;
17614;SDS011;8926;49.720;6.576;2023-07-29T10:55:28;1.20;;;1.10;;
17614;SDS011;8926;49.720;6.576;2023-07-29T11:00:37;1.40;;;1.30;;
17614;SDS011;8926;49.720;6.576;2023-07-29T11:03:05;1.63;;;1.30;;
17614;SDS011;8926;49.720;6.576;2023-07-29T11:05:44;1.17;;;1.07;;
17614;SDS011;8926;49.720;6.576;2023-07-29T11:08:18;1.10;;;1.00;;
17614;SDS011;8926;49.720;6.576;2023-07-29T11:10:49;1.17;;;1.17;;
17614;SDS011;8926;49.720;6.576;2023-07-29T11:13:28;2.10;;;1.00;;
17614;SDS011;8926;49.720;6.576;2023-07-29T11:15:58;1.43;;;1.10;;
17614;SDS011;8926;49.720;6.576;2023-07-29T11:18:27;1.10;;;1.10;;
17614;SDS011;8926;49.720;6.576;2023-07-29T11:20:54;1.10;;;1.10;;
17614;SDS011;8926;49.720;6.576;2023-07-29T11:23:21;1.00;;;1.00;;
17614;SDS011;8926;49.720;6.576;2023-07-29T11:25:52;1.13;;;1.10;;
17614;SDS011;8926;49.720;6.576;2023-07-29T11:28:17;0.90;;;0.90;;
17614;SDS011;8926;49.720;6.576;2023-07-29T11:30:43;1.47;;;1.10;;
17614;SDS011;8926;49.720;6.576;2023-07-29T11:33:08;1.47;;;1.37;;
17614;SDS011;8926;49.720;6.576;2023-07-29T11:35:34;1.40;;;1.30;;
17614;SDS011;8926;49.720;6.576;2023-07-29T11:38:00;1.30;;;1.20;;
17614;SDS011;8926;49.720;6.576;2023-07-29T11:40:25;1.33;;;1.00;;
17614;SDS011;8926;49.720;6.576;2023-07-29T11:42:51;1.30;;;1.20;;
17614;SDS011;8926;49.720;6.576;2023-07-29T11:45:17;1.33;;;1.27;;
17614;SDS011;8926;49.720;6.576;2023-07-29T11:47:44;1.23;;;1.20;;
17614;SDS011;8926;49.720;6.576;2023-07-29T11:50:10;1.13;;;1.03;;
17614;SDS011;8926;49.720;6.576;2023-07-29T11:52:39;0.90;;;0.90;;
17614;SDS011;8926;49.720;6.576;2023-07-29T11:55:07;0.97;;;0.97;;
17614;SDS011;8926;49.720;6.576;2023-07-29T11:57:33;0.90;;;0.90;;
17614;SDS011;8926;49.720;6.576;2023-07-29T12:00:04;1.03;;;1.03;;
17614;SDS011;8926;49.720;6.576;2023-07-29T12:02:31;1.10;;;1.00;;
17614;SDS011;8926;49.720;6.576;2023-07-29T12:04:57;1.10;;;1.10;;
17614;SDS011;8926;49.720;6.576;2023-07-29T12:07:23;0.90;;;0.90;;
17614;SDS011;8926;49.720;6.576;2023-07-29T12:09:49;2.47;;;1.00;;
17614;SDS011;8926;49.720;6.576;2023-07-29T12:12:15;1.13;;;1.13;;
17614;SDS011;8926;49.720;6.576;2023-07-29T12:14:43;1.07;;;1.07;;
17614;SDS011;8926;49.720;6.576;2023-07-29T12:17:10;0.90;;;0.90;;
17614;SDS011;8926;49.720;6.576;2023-07-29T12:19:36;1.27;;;0.90;;
17614;SDS011;8926;49.720;6.576;2023-07-29T12:22:03;1.07;;;1.00;;
17614;SDS011;8926;49.720;6.576;2023-07-29T12:24:30;1.23;;;1.13;;
17614;SDS011;8926;49.720;6.576;2023-07-29T12:26:56;1.10;;;1.10;;
17614;SDS011;8926;49.720;6.576;2023-07-29T12:29:22;1.70;;;0.90;;
17614;SDS011;8926;49.720;6.576;2023-07-29T12:31:49;0.90;;;0.80;;
17614;SDS011;8926;49.720;6.576;2023-07-29T12:34:22;1.27;;;1.17;;
17614;SDS011;8926;49.720;6.576;2023-07-29T12:36:48;1.10;;;1.10;;
17614;SDS011;8926;49.720;6.576;2023-07-29T12:39:18;0.93;;;0.93;;
17614;SDS011;8926;49.720;6.576;2023-07-29T12:41:44;1.17;;;1.10;;
17614;SDS011;8926;49.720;6.576;2023-07-29T12:44:10;1.37;;;1.20;;
17614;SDS011;8926;49.720;6.576;2023-07-29T12:46:35;0.90;;;0.90;;
17614;SDS011;8926;49.720;6.576;2023-07-29T12:49:00;0.93;;;0.93;;
17614;SDS011;8926;49.720;6.576;2023-07-29T12:51:26;1.47;;;1.23;;
17614;SDS011;8926;49.720;6.576;2023-07-29T12:53:51;1.30;;;1.20;;
17614;SDS011;8926;49.720;6.576;2023-07-29T12:56:17;1.30;;;1.20;;
17614;SDS011;8926;49.720;6.576;2023-07-29T12:58:42;1.30;;;1.30;;
17614;SDS011;8926;49.720;6.576;2023-07-29T13:01:07;1.00;;;1.00;;
17614;SDS011;8926;49.720;6.576;2023-07-29T13:03:34;1.30;;;1.30;;
17614;SDS011;8926;49.720;6.576;2023-07-29T13:05:59;0.80;;;0.80;;
17614;SDS011;8926;49.720;6.576;2023-07-29T13:08:24;0.90;;;0.90;;
17614;SDS011;8926;49.720;6.576;2023-07-29T13:10:49;0.70;;;0.70;;
17614;SDS011;8926;49.720;6.576;2023-07-29T13:13:15;0.93;;;0.93;;
17614;SDS011;8926;49.720;6.576;2023-07-29T13:15:40;1.00;;;1.00;;
17614;SDS011;8926;49.720;6.576;2023-07-29T13:18:06;0.93;;;0.93;;
17614;SDS011;8926;49.720;6.576;2023-07-29T13:20:31;1.60;;;1.10;;
17614;SDS011;8926;49.720;6.576;2023-07-29T13:22:58;0.90;;;0.90;;
17614;SDS011;8926;49.720;6.576;2023-07-29T13:25:23;0.90;;;0.90;;
17614;SDS011;8926;49.720;6.576;2023-07-29T13:27:49;1.37;;;1.10;;
17614;SDS011;8926;49.720;6.576;2023-07-29T13:30:14;1.00;;;1.00;;
17614;SDS011;8926;49.720;6.576;2023-07-29T13:32:39;1.20;;;1.20;;
17614;SDS011;8926;49.720;6.576;2023-07-29T13:35:05;1.20;;;1.10;;
17614;SDS011;8926;49.720;6.576;2023-07-29T13:37:30;1.00;;;1.00;;
17614;SDS011;8926;49.720;6.576;2023-07-29T13:39:55;1.20;;;1.10;;
17614;SDS011;8926;49.720;6.576;2023-07-29T13:42:21;1.10;;;1.10;;
17614;SDS011;8926;49.720;6.576;2023-07-29T13:44:46;1.00;;;1.00;;
17614;SDS011;8926;49.720;6.576;2023-07-29T13:47:11;0.90;;;0.90;;
17614;SDS011;8926;49.720;6.576;2023-07-29T13:49:36;0.93;;;0.93;;
17614;SDS011;8926;49.720;6.576;2023-07-29T13:52:02;1.10;;;1.10;;
17614;SDS011;8926;49.720;6.576;2023-07-29T13:54:27;1.00;;;1.00;;
17614;SDS011;8926;49.720;6.576;2023-07-29T13:56:53;0.90;;;0.90;;
17614;SDS011;8926;49.720;6.576;2023-07-29T13:59:19;1.43;;;1.13;;
17614;SDS011;8926;49.720;6.576;2023-07-29T14:01:44;1.00;;;1.00;;
17614;SDS011;8926;49.720;6.576;2023-07-29T14:04:09;1.20;;;1.10;;
17614;SDS011;8926;49.720;6.576;2023-07-29T14:06:35;1.10;;;1.00;;
17614;SDS011;8926;49.720;6.576;2023-07-29T14:09:00;1.00;;;1.00;;
17614;SDS011;8926;49.720;6.576;2023-07-29T14:11:25;1.10;;;1.10;;
17614;SDS011;8926;49.720;6.576;2023-07-29T14:13:50;1.10;;;1.10;;
17614;SDS011;8926;49.720;6.576;2023-07-29T14:16:16;1.07;;;1.07;;
17614;SDS011;8926;49.720;6.576;2023-07-29T14:18:41;1.10;;;1.10;;
17614;SDS011;8926;49.720;6.576;2023-07-29T14:21:06;1.10;;;1.10;;
17614;SDS011;8926;49.720;6.576;2023-07-29T14:23:31;1.00;;;1.00;;
17614;SDS011;8926;49.720;6.576;2023-07-29T14:25:57;0.60;;;0.60;;
17614;SDS011;8926;49.720;6.576;2023-07-29T14:28:23;0.90;;;0.90;;
17614;SDS011;8926;49.720;6.576;2023-07-29T14:30:48;0.73;;;0.73;;
17614;SDS011;8926;49.720;6.576;2023-07-29T14:33:13;1.60;;;1.10;;
17614;SDS011;8926;49.720;6.576;2023-07-29T14:35:39;1.00;;;1.00;;
17614;SDS011;8926;49.720;6.576;2023-07-29T14:38:05;0.83;;;0.83;;
17614;SDS011;8926;49.720;6.576;2023-07-29T14:40:30;2.00;;;1.00;;
17614;SDS011;8926;49.720;6.576;2023-07-29T14:42:55;0.90;;;0.90;;
17614;SDS011;8926;49.720;6.576;2023-07-29T14:45:21;1.10;;;1.10;;
17614;SDS011;8926;49.720;6.576;2023-07-29T14:47:46;1.37;;;1.27;;
17614;SDS011;8926;49.720;6.576;2023-07-29T14:50:11;1.10;;;1.10;;
17614;SDS011;8926;49.720;6.576;2023-07-29T14:52:37;1.23;;;1.20;;
17614;SDS011;8926;49.720;6.576;2023-07-29T14:55:02;0.90;;;0.90;;
17614;SDS011;8926;49.720;6.576;2023-07-29T14:57:27;1.33;;;1.23;;
17614;SDS011;8926;49.720;6.576;2023-07-29T14:59:53;1.53;;;1.10;;
17614;SDS011;8926;49.720;6.576;2023-07-29T15:02:18;0.80;;;0.80;;
17614;SDS011;8926;49.720;6.576;2023-07-29T15:04:43;0.93;;;0.93;;